Florencia — IBPD — position and weather

sailwx.info

Track history (hours):
 
Tides and Currents Weather Stations Pressure Air Temp Water Temp Dewpoint Dewpoint Depression Visibility Wind Speed Wind Dir Waves Ship Positions

Florencia

Last reported at 2016-Dec-06 03:33 UTC. Time now 2016-Dec-06 12:12 UTC.
Position N 38°46' E 015°25'.

Length 186 m; draft 6.3 m.

Type: Ship. MMSI: 247105900.

Date/timePositionNaut miles runAvg speedWind from/ knotsBaromVisibWave heightAir tempDewpointWater temp
2016-Dec-06 03:33N 38°46' E 015°25'2221.7
2016-Dec-06 02:33N 38°27' E 015°37'1616.1
2016-Dec-06 01:34N 38°11' E 015°37'2121.0
2016-Dec-06 00:33N 37°51' E 015°26'2121.4
2016-Dec-05 23:33N 37°32' E 015°15'2 0.1
2016-Dec-05 05:14N 37°34' E 015°16'1521.4
2016-Dec-05 04:33N 37°47' E 015°23'2222.2
2016-Dec-05 03:33N 38°07' E 015°34'1918.7
2016-Dec-05 02:33N 38°26' E 015°36'2019.9
2016-Dec-05 01:32N 38°44' E 015°25'2020.7
2016-Dec-05 00:33N 39°02' E 015°13'19 0.9
2016-Dec-04 03:33N 38°45' E 015°25'2120.8
2016-Dec-04 02:33N 38°27' E 015°38'1716.9
2016-Dec-04 01:34N 38°10' E 015°37'2121.4
2016-Dec-04 00:33N 37°51' E 015°26'2120.9
2016-Dec-03 23:32N 37°31' E 015°14'7 0.4
2016-Dec-03 07:21N 37°29' E 015°06'1518.4
2016-Dec-03 06:33N 37°39' E 015°19'2222.1
2016-Dec-03 05:33N 37°59' E 015°30'2019.7
2016-Dec-03 04:33N 38°17' E 015°41'2121.3
2016-Dec-03 03:33N 38°36' E 015°30'2221.5
2016-Dec-03 02:33N 38°56' E 015°17'3 0.1
2016-Dec-02 01:07N 38°59' E 015°17'1322.0
2016-Dec-02 00:33N 38°47' E 015°24'2222.2
2016-Dec-01 23:33N 38°28' E 015°37'1615.9
2016-Dec-01 22:33N 38°12' E 015°37'2221.6
2016-Dec-01 21:33N 37°52' E 015°27'2322.1
2016-Dec-01 20:32N 37°31' E 015°15'8 0.6
2016-Dec-01 07:25N 37°29' E 015°06'1214.5
2016-Dec-01 06:34N 37°37' E 015°18'2221.9
2016-Dec-01 05:33N 37°57' E 015°29'2020.0
2016-Dec-01 04:33N 38°15' E 015°39'2020.5
2016-Dec-01 03:34N 38°35' E 015°31'2221.8
2016-Dec-01 02:33N 38°54' E 015°18'8821.3
2016-Nov-30 22:24N 40°14' E 014°28'1821.1
2016-Nov-30 21:33N 40°30' E 014°19'20 2.2
2016-Nov-30 12:26N 40°50' E 014°16'0 0.0
2016-Nov-30 11:30N 40°50' E 014°16'0 0.0
2016-Nov-30 10:19N 40°50' E 014°16'1013.3
2016-Nov-30 09:33N 40°40' E 014°17'2120.8
2016-Nov-30 08:33N 40°20' E 014°25'9120.9
2016-Nov-30 04:13N 38°59' E 015°17'1420.6
2016-Nov-30 03:32N 38°46' E 015°25'2020.3
2016-Nov-30 02:33N 38°29' E 015°36'1616.5
2016-Nov-30 01:33N 38°12' E 015°37'2019.9
2016-Nov-30 00:33N 37°53' E 015°28'2121.0
2016-Nov-29 23:33N 37°34' E 015°16'10 0.6
2016-Nov-29 07:24N 37°29' E 015°06'1315.4
2016-Nov-29 06:32N 37°38' E 015°18'2222.3
2016-Nov-29 05:33N 37°58' E 015°29'2120.5
2016-Nov-29 04:34N 38°17' E 015°41'2221.5
2016-Nov-29 03:33N 38°37' E 015°29'2221.9
2016-Nov-29 02:33N 38°56' E 015°17'8721.6
2016-Nov-28 22:32N 40°14' E 014°28'2121.4
2016-Nov-28 21:33N 40°33' E 014°17'1715.1
2016-Nov-28 20:26N 40°50' E 014°16'0 0.0
2016-Nov-28 19:21N 40°50' E 014°16'0 0.0
2016-Nov-28 18:33N 40°50' E 014°16'0 0.0
2016-Nov-28 17:33N 40°50' E 014°16'0 0.0
2016-Nov-28 16:33N 40°50' E 014°16'0 0.0
2016-Nov-28 14:33N 40°50' E 014°16'0 0.0
2016-Nov-28 13:33N 40°50' E 014°16'0 0.0
2016-Nov-28 12:33N 40°50' E 014°16'0 0.0
2016-Nov-28 07:33N 40°50' E 014°16'0 0.3
2016-Nov-28 06:25N 40°50' E 014°16'1719.3
2016-Nov-28 05:33N 40°34' E 014°18'2322.7
2016-Nov-28 04:33N 40°13' E 014°31'9122.5
2016-Nov-28 00:31N 38°51' E 015°22'2121.9
2016-Nov-27 23:33N 38°32' E 015°34'1818.3
2016-Nov-27 22:33N 38°14' E 015°38'2120.6
2016-Nov-27 21:34N 37°55' E 015°29'32 2.2
2016-Nov-27 07:15N 37°29' E 015°06'1115.6
2016-Nov-27 06:33N 37°36' E 015°17'2222.1
2016-Nov-27 05:33N 37°56' E 015°28'2121.1
2016-Nov-27 04:33N 38°15' E 015°39'2020.5
2016-Nov-27 03:33N 38°34' E 015°30'2322.1
2016-Nov-27 02:32N 38°55' E 015°17'  
Track history (hours):
 
Tides and Currents Weather Stations Pressure Air Temp Water Temp Dewpoint Dewpoint Depression Visibility Wind Speed Wind Dir Waves Ship Positions

Florencia

Last reported at 2016-Dec-06 03:33 UTC. Time now 2016-Dec-06 12:12 UTC.
Position N 38°46' E 015°25'.

Length 186 m; draft 6.3 m.

Type: Ship. MMSI: 247105900.

Date/timePositionNaut miles runAvg speedWind from/ knotsBaromVisibWave heightAir tempDewpointWater temp
2016-Dec-06 03:33N 38°46' E 015°25'2221.7
2016-Dec-06 02:33N 38°27' E 015°37'1616.1
2016-Dec-06 01:34N 38°11' E 015°37'2121.0
2016-Dec-06 00:33N 37°51' E 015°26'2121.4
2016-Dec-05 23:33N 37°32' E 015°15'2 0.1
2016-Dec-05 05:14N 37°34' E 015°16'1521.4
2016-Dec-05 04:33N 37°47' E 015°23'2222.2
2016-Dec-05 03:33N 38°07' E 015°34'1918.7
2016-Dec-05 02:33N 38°26' E 015°36'2019.9
2016-Dec-05 01:32N 38°44' E 015°25'2020.7
2016-Dec-05 00:33N 39°02' E 015°13'19 0.9
2016-Dec-04 03:33N 38°45' E 015°25'2120.8
2016-Dec-04 02:33N 38°27' E 015°38'1716.9
2016-Dec-04 01:34N 38°10' E 015°37'2121.4
2016-Dec-04 00:33N 37°51' E 015°26'2120.9
2016-Dec-03 23:32N 37°31' E 015°14'7 0.4
2016-Dec-03 07:21N 37°29' E 015°06'1518.4
2016-Dec-03 06:33N 37°39' E 015°19'2222.1
2016-Dec-03 05:33N 37°59' E 015°30'2019.7
2016-Dec-03 04:33N 38°17' E 015°41'2121.3
2016-Dec-03 03:33N 38°36' E 015°30'2221.5
2016-Dec-03 02:33N 38°56' E 015°17'3 0.1
2016-Dec-02 01:07N 38°59' E 015°17'1322.0
2016-Dec-02 00:33N 38°47' E 015°24'2222.2
2016-Dec-01 23:33N 38°28' E 015°37'1615.9
2016-Dec-01 22:33N 38°12' E 015°37'2221.6
2016-Dec-01 21:33N 37°52' E 015°27'2322.1
2016-Dec-01 20:32N 37°31' E 015°15'8 0.6
2016-Dec-01 07:25N 37°29' E 015°06'1214.5
2016-Dec-01 06:34N 37°37' E 015°18'2221.9
2016-Dec-01 05:33N 37°57' E 015°29'2020.0
2016-Dec-01 04:33N 38°15' E 015°39'2020.5
2016-Dec-01 03:34N 38°35' E 015°31'2221.8
2016-Dec-01 02:33N 38°54' E 015°18'8821.3
2016-Nov-30 22:24N 40°14' E 014°28'1821.1
2016-Nov-30 21:33N 40°30' E 014°19'20 2.2
2016-Nov-30 12:26N 40°50' E 014°16'0 0.0
2016-Nov-30 11:30N 40°50' E 014°16'0 0.0
2016-Nov-30 10:19N 40°50' E 014°16'1013.3
2016-Nov-30 09:33N 40°40' E 014°17'2120.8
2016-Nov-30 08:33N 40°20' E 014°25'9120.9
2016-Nov-30 04:13N 38°59' E 015°17'1420.6
2016-Nov-30 03:32N 38°46' E 015°25'2020.3
2016-Nov-30 02:33N 38°29' E 015°36'1616.5
2016-Nov-30 01:33N 38°12' E 015°37'2019.9
2016-Nov-30 00:33N 37°53' E 015°28'2121.0
2016-Nov-29 23:33N 37°34' E 015°16'10 0.6
2016-Nov-29 07:24N 37°29' E 015°06'1315.4
2016-Nov-29 06:32N 37°38' E 015°18'2222.3
2016-Nov-29 05:33N 37°58' E 015°29'2120.5
2016-Nov-29 04:34N 38°17' E 015°41'2221.5
2016-Nov-29 03:33N 38°37' E 015°29'2221.9
2016-Nov-29 02:33N 38°56' E 015°17'8721.6
2016-Nov-28 22:32N 40°14' E 014°28'2121.4
2016-Nov-28 21:33N 40°33' E 014°17'1715.1
2016-Nov-28 20:26N 40°50' E 014°16'0 0.0
2016-Nov-28 19:21N 40°50' E 014°16'0 0.0
2016-Nov-28 18:33N 40°50' E 014°16'0 0.0
2016-Nov-28 17:33N 40°50' E 014°16'0 0.0
2016-Nov-28 16:33N 40°50' E 014°16'0 0.0
2016-Nov-28 14:33N 40°50' E 014°16'0 0.0
2016-Nov-28 13:33N 40°50' E 014°16'0 0.0
2016-Nov-28 12:33N 40°50' E 014°16'0 0.0
2016-Nov-28 07:33N 40°50' E 014°16'0 0.3
2016-Nov-28 06:25N 40°50' E 014°16'1719.3
2016-Nov-28 05:33N 40°34' E 014°18'2322.7
2016-Nov-28 04:33N 40°13' E 014°31'9122.5
2016-Nov-28 00:31N 38°51' E 015°22'2121.9
2016-Nov-27 23:33N 38°32' E 015°34'1818.3
2016-Nov-27 22:33N 38°14' E 015°38'2120.6
2016-Nov-27 21:34N 37°55' E 015°29'32 2.2
2016-Nov-27 07:15N 37°29' E 015°06'1115.6
2016-Nov-27 06:33N 37°36' E 015°17'2222.1
2016-Nov-27 05:33N 37°56' E 015°28'2121.1
2016-Nov-27 04:33N 38°15' E 015°39'2020.5
2016-Nov-27 03:33N 38°34' E 015°30'2322.1
2016-Nov-27 02:32N 38°55' E 015°17'  

Dump ship's entire track history